»·PEaware :: N265K KSNA-KOXR

N265K :: KSNA-KOXR

FLIGHT INFORMATION

Flight Status: Arrived
Operator: Privately registered:
United States
More flights under this callsign
Pilot: Tytus A. (10113)
Aircraft: CESSNA 210 CENTURION
(C210)
More flights by this aircraft type
Origin: KSNA John Wayne-Orange Co
United States
Destination: KOXR Oxnard
United States
More flights between these airports :: More routes between these airports
Route: +SLI V23 POPPR SMO125 SMO VNY
File this flight plan on PilotEdge
Remarks: I'll accept a hold if you can work it in
Altitude:
(Current/Filed)
4,000ft
Speed:
(Current/Filed)
160kts
Departed: 28-May-20 08:44 PM
Arrived: 28-May-20 09:50 PM
Distance/Time
Traveled:
73nm/1:06
Distance/Time
To Go:
Arrived

Flight Plot

Page will automatically refresh every two minutes.


Map Options




Map Legend


Flown Route
Filed Route
Departure Airport
Arrival Airport
Navaid (VOR, NDB)
Fix

Horizontal Profiles

Position Reports

Time Latitude Longitude Heading Altitude Ground
Speed
28-May-20 20:26 33.666435 -117.873047 219 59ft 0kts
28-May-20 20:27 33.666421 -117.873061 219 59ft 0kts
28-May-20 20:28 33.666420 -117.873062 219 59ft 0kts
28-May-20 20:29 33.666419 -117.873063 219 59ft 0kts
28-May-20 20:30 33.666418 -117.873064 219 59ft 0kts
28-May-20 20:31 33.666417 -117.873064 219 59ft 0kts
28-May-20 20:32 33.666416 -117.873065 220 59ft 0kts
28-May-20 20:33 33.666415 -117.873066 220 59ft 0kts
28-May-20 20:34 33.666414 -117.873067 220 59ft 0kts
28-May-20 20:35 33.666413 -117.873068 220 59ft 0kts
28-May-20 20:36 33.666413 -117.873069 220 59ft 0kts
28-May-20 20:37 33.666412 -117.873070 220 59ft 0kts
28-May-20 20:38 33.667115 -117.872977 34 59ft 11kts
28-May-20 20:39 33.671751 -117.868678 46 59ft 23kts
28-May-20 20:40 33.675657 -117.866048 26 59ft 24kts
28-May-20 20:41 33.679726 -117.863897 309 59ft 0kts
28-May-20 20:42 33.678855 -117.864983 207 59ft 40kts
28-May-20 20:43 33.659247 -117.883998 243 872ft 122kts
28-May-20 20:44 33.644171 -117.919691 240 1714ft 126kts
28-May-20 20:45 33.627627 -117.955090 241 2588ft 119kts
28-May-20 20:46 33.639606 -117.996680 302 2657ft 151kts
28-May-20 20:47 33.665349 -118.034004 310 3208ft 138kts
28-May-20 20:48 33.689750 -118.068326 307 3872ft 133kts
28-May-20 20:49 33.715183 -118.105171 308 3999ft 153kts
28-May-20 20:50 33.742647 -118.144144 308 3991ft 152kts
28-May-20 20:51 33.769785 -118.183069 308 4001ft 151kts
28-May-20 20:52 33.796724 -118.222177 307 4001ft 152kts
28-May-20 20:53 33.824745 -118.260167 311 4001ft 152kts
28-May-20 20:54 33.854033 -118.296977 313 3999ft 152kts
28-May-20 20:55 33.883748 -118.333235 314 4000ft 152kts
28-May-20 20:56 33.914729 -118.368308 316 3997ft 152kts
28-May-20 20:57 33.948271 -118.399869 320 3991ft 153kts
28-May-20 20:58 33.981938 -118.431102 320 3990ft 152kts
28-May-20 20:59 34.017333 -118.458605 349 4032ft 152kts
28-May-20 21:00 34.060061 -118.464751 350 4017ft 155kts
28-May-20 21:01 34.103005 -118.471943 350 4007ft 156kts
28-May-20 21:02 34.145801 -118.480562 329 3972ft 154kts
28-May-20 21:03 34.162745 -118.525858 286 3976ft 150kts
28-May-20 21:04 34.168883 -118.575360 271 3963ft 150kts
28-May-20 21:05 34.170942 -118.628466 271 3577ft 155kts
28-May-20 21:06 34.173468 -118.679015 272 3600ft 148kts
28-May-20 21:07 34.176173 -118.728730 272 3599ft 148kts
28-May-20 21:08 34.178799 -118.778468 272 3602ft 150kts
28-May-20 21:09 34.181302 -118.829004 272 3591ft 146kts
28-May-20 21:10 34.183572 -118.876206 272 3594ft 137kts
28-May-20 21:11 34.185788 -118.921962 273 3596ft 136kts
28-May-20 21:12 34.190591 -118.962854 283 3637ft 101kts
28-May-20 21:13 34.197578 -118.997287 282 3232ft 110kts
28-May-20 21:14 34.199375 -119.034926 267 2723ft 109kts
28-May-20 21:15 34.199579 -119.071181 271 2186ft 118kts
28-May-20 21:16 34.199862 -119.109541 270 1545ft 114kts
28-May-20 21:17 34.199914 -119.147526 271 943ft 114kts
28-May-20 21:18 34.200597 -119.185660 271 379ft 118kts
28-May-20 21:19 34.199580 -119.227727 260 858ft 151kts
28-May-20 21:20 34.193386 -119.271979 259 1968ft 141kts
28-May-20 21:21 34.191053 -119.317023 266 2573ft 161kts
28-May-20 21:22 34.189664 -119.373384 268 2000ft 162kts
28-May-20 21:23 34.165517 -119.414826 224 1965ft 154kts
28-May-20 21:24 34.154335 -119.454564 305 2000ft 145kts
28-May-20 21:25 34.188056 -119.456450 57 2412ft 137kts
28-May-20 21:26 34.190946 -119.407251 89 2244ft 161kts
28-May-20 21:27 34.190219 -119.353890 91 2325ft 145kts
28-May-20 21:28 34.189489 -119.307254 91 2937ft 134kts
28-May-20 21:29 34.179183 -119.265826 112 3610ft 126kts
28-May-20 21:30 34.166313 -119.225635 112 4254ft 135kts
28-May-20 21:31 34.152436 -119.176712 95 4320ft 171kts
28-May-20 21:32 34.150299 -119.117440 92 4298ft 179kts
28-May-20 21:33 34.148165 -119.057089 92 4297ft 180kts
28-May-20 21:34 34.146092 -118.996490 92 4295ft 180kts
28-May-20 21:35 34.144169 -118.936116 92 4288ft 175kts
28-May-20 21:36 34.142466 -118.879906 92 4295ft 163kts
28-May-20 21:37 34.142225 -118.825534 67 4294ft 162kts
28-May-20 21:38 34.180135 -118.825964 303 4304ft 153kts
28-May-20 21:39 34.196303 -118.874097 279 4073ft 163kts
28-May-20 21:40 34.198441 -118.928340 271 3588ft 149kts
28-May-20 21:41 34.199374 -118.968828 269 3582ft 97kts
28-May-20 21:42 34.199305 -118.999836 268 3378ft 93kts
28-May-20 21:44 34.199405 -119.032721 269 2864ft 101kts
28-May-20 21:45 34.199689 -119.068046 269 2215ft 107kts
28-May-20 21:46 34.200001 -119.104095 269 1601ft 106kts
28-May-20 21:47 34.200243 -119.139864 269 1035ft 107kts
28-May-20 21:48 34.200506 -119.175943 270 491ft 108kts
28-May-20 21:49 34.200809 -119.207073 271 58ft 76kts
28-May-20 21:50 34.200425 -119.216777 178 46ft 8kts
28-May-20 21:51 34.199285 -119.215525 84 46ft 1kts
28-May-20 21:52 34.199353 -119.206770 80 46ft 40kts
28-May-20 21:53 34.199646 -119.202411 71 46ft 0kts
28-May-20 21:54 34.199646 -119.202410 71 46ft 0kts
28-May-20 21:55 34.199646 -119.202409 71 46ft 0kts
28-May-20 21:56 34.199647 -119.202409 71 46ft 0kts
28-May-20 21:57 34.199647 -119.202408 71 46ft 0kts
28-May-20 21:58 34.199647 -119.202407 71 46ft 0kts
28-May-20 21:59 34.198996 -119.203113 195 46ft 17kts
28-May-20 22:00 34.198667 -119.202785 24 46ft 0kts

Navigation Log

Ident Type
Flight plan parsing failed, navigation log unavailable